sensor_id;sensor_type;location;lat;lon;timestamp;P1;P2;P0
55591;PMS5003;41454;53.396;-1.510;2022-12-15T00:00:47;2;2;
55591;PMS5003;41454;53.396;-1.510;2022-12-15T00:03:15;0;0;
55591;PMS5003;41454;53.396;-1.510;2022-12-15T00:05:41;1;1;
55591;PMS5003;41454;53.396;-1.510;2022-12-15T00:08:09;1;1;
55591;PMS5003;41454;53.396;-1.510;2022-12-15T00:10:36;0;0;
55591;PMS5003;41454;53.396;-1.510;2022-12-15T00:13:08;0;0;
55591;PMS5003;41454;53.396;-1.510;2022-12-15T00:15:36;1;1;
55591;PMS5003;41454;53.396;-1.510;2022-12-15T00:18:04;3;1;
55591;PMS5003;41454;53.396;-1.510;2022-12-15T00:20:31;3;1;
55591;PMS5003;41454;53.396;-1.510;2022-12-15T00:23:05;0;0;
55591;PMS5003;41454;53.396;-1.510;2022-12-15T00:25:33;0;0;
55591;PMS5003;41454;53.396;-1.510;2022-12-15T00:28:00;1;1;
55591;PMS5003;41454;53.396;-1.510;2022-12-15T00:30:27;1;1;
55591;PMS5003;41454;53.396;-1.510;2022-12-15T00:32:55;1;1;
55591;PMS5003;41454;53.396;-1.510;2022-12-15T00:35:22;0;0;
55591;PMS5003;41454;53.396;-1.510;2022-12-15T00:37:49;0;0;
55591;PMS5003;41454;53.396;-1.510;2022-12-15T00:40:16;0;0;
55591;PMS5003;41454;53.396;-1.510;2022-12-15T00:42:43;1;1;
55591;PMS5003;41454;53.396;-1.510;2022-12-15T00:45:11;0;0;
55591;PMS5003;41454;53.396;-1.510;2022-12-15T00:47:38;0;0;
55591;PMS5003;41454;53.396;-1.510;2022-12-15T00:50:05;0;0;
55591;PMS5003;41454;53.396;-1.510;2022-12-15T00:52:33;0;0;
55591;PMS5003;41454;53.396;-1.510;2022-12-15T00:55:00;0;0;
55591;PMS5003;41454;53.396;-1.510;2022-12-15T00:57:28;0;0;
55591;PMS5003;41454;53.396;-1.510;2022-12-15T00:59:55;0;0;
55591;PMS5003;41454;53.396;-1.510;2022-12-15T01:09:20;0;0;
55591;PMS5003;41454;53.396;-1.510;2022-12-15T01:11:53;0;0;
55591;PMS5003;41454;53.396;-1.510;2022-12-15T01:14:21;0;0;
55591;PMS5003;41454;53.396;-1.510;2022-12-15T01:16:48;1;1;
55591;PMS5003;41454;53.396;-1.510;2022-12-15T01:19:15;0;0;
55591;PMS5003;41454;53.396;-1.510;2022-12-15T01:21:42;0;0;
55591;PMS5003;41454;53.396;-1.510;2022-12-15T01:24:09;1;1;
55591;PMS5003;41454;53.396;-1.510;2022-12-15T01:26:36;1;1;
55591;PMS5003;41454;53.396;-1.510;2022-12-15T01:29:03;2;1;
55591;PMS5003;41454;53.396;-1.510;2022-12-15T01:31:30;1;0;
55591;PMS5003;41454;53.396;-1.510;2022-12-15T01:33:57;1;1;
55591;PMS5003;41454;53.396;-1.510;2022-12-15T01:36:24;1;1;
55591;PMS5003;41454;53.396;-1.510;2022-12-15T01:38:51;1;1;
55591;PMS5003;41454;53.396;-1.510;2022-12-15T01:41:18;0;0;
55591;PMS5003;41454;53.396;-1.510;2022-12-15T01:43:44;2;2;
55591;PMS5003;41454;53.396;-1.510;2022-12-15T01:46:12;3;2;
55591;PMS5003;41454;53.396;-1.510;2022-12-15T01:48:41;1;1;
55591;PMS5003;41454;53.396;-1.510;2022-12-15T01:51:13;2;2;
55591;PMS5003;41454;53.396;-1.510;2022-12-15T01:53:47;2;2;
55591;PMS5003;41454;53.396;-1.510;2022-12-15T01:56:19;1;1;
55591;PMS5003;41454;53.396;-1.510;2022-12-15T01:58:49;2;2;
55591;PMS5003;41454;53.396;-1.510;2022-12-15T02:01:19;1;1;
55591;PMS5003;41454;53.396;-1.510;2022-12-15T02:03:46;1;1;
55591;PMS5003;41454;53.396;-1.510;2022-12-15T02:06:14;1;1;
55591;PMS5003;41454;53.396;-1.510;2022-12-15T02:08:44;2;2;
55591;PMS5003;41454;53.396;-1.510;2022-12-15T02:11:18;2;2;
55591;PMS5003;41454;53.396;-1.510;2022-12-15T02:14:02;2;2;
55591;PMS5003;41454;53.396;-1.510;2022-12-15T02:16:34;0;0;
55591;PMS5003;41454;53.396;-1.510;2022-12-15T02:19:17;1;1;
55591;PMS5003;41454;53.396;-1.510;2022-12-15T02:22:07;1;1;
55591;PMS5003;41454;53.396;-1.510;2022-12-15T02:24:56;1;1;
55591;PMS5003;41454;53.396;-1.510;2022-12-15T02:27:43;0;0;
55591;PMS5003;41454;53.396;-1.510;2022-12-15T02:30:17;1;1;
55591;PMS5003;41454;53.396;-1.510;2022-12-15T02:32:49;1;1;
55591;PMS5003;41454;53.396;-1.510;2022-12-15T02:35:27;1;1;
55591;PMS5003;41454;53.396;-1.510;2022-12-15T02:38:13;1;1;
55591;PMS5003;41454;53.396;-1.510;2022-12-15T02:40:40;1;1;
55591;PMS5003;41454;53.396;-1.510;2022-12-15T02:43:07;1;1;
55591;PMS5003;41454;53.396;-1.510;2022-12-15T02:45:39;2;0;
55591;PMS5003;41454;53.396;-1.510;2022-12-15T02:48:20;1;1;
55591;PMS5003;41454;53.396;-1.510;2022-12-15T02:50:59;3;1;
55591;PMS5003;41454;53.396;-1.510;2022-12-15T02:53:40;0;0;
55591;PMS5003;41454;53.396;-1.510;2022-12-15T02:56:26;1;1;
55591;PMS5003;41454;53.396;-1.510;2022-12-15T02:59:02;0;0;
55591;PMS5003;41454;53.396;-1.510;2022-12-15T03:01:35;1;1;
55591;PMS5003;41454;53.396;-1.510;2022-12-15T03:04:05;0;0;
55591;PMS5003;41454;53.396;-1.510;2022-12-15T03:06:35;1;1;
55591;PMS5003;41454;53.396;-1.510;2022-12-15T03:09:02;0;0;
55591;PMS5003;41454;53.396;-1.510;2022-12-15T03:11:30;0;0;
55591;PMS5003;41454;53.396;-1.510;2022-12-15T03:13:58;0;0;
55591;PMS5003;41454;53.396;-1.510;2022-12-15T03:16:24;1;0;
55591;PMS5003;41454;53.396;-1.510;2022-12-15T03:18:51;0;0;
55591;PMS5003;41454;53.396;-1.510;2022-12-15T03:21:19;0;0;
55591;PMS5003;41454;53.396;-1.510;2022-12-15T03:23:46;0;0;
55591;PMS5003;41454;53.396;-1.510;2022-12-15T03:26:12;0;0;
55591;PMS5003;41454;53.396;-1.510;2022-12-15T03:28:40;0;0;
55591;PMS5003;41454;53.396;-1.510;2022-12-15T03:31:07;1;1;
55591;PMS5003;41454;53.396;-1.510;2022-12-15T03:33:34;0;0;
55591;PMS5003;41454;53.396;-1.510;2022-12-15T03:36:00;0;0;
55591;PMS5003;41454;53.396;-1.510;2022-12-15T03:38:28;1;0;
55591;PMS5003;41454;53.396;-1.510;2022-12-15T03:40:55;0;0;
55591;PMS5003;41454;53.396;-1.510;2022-12-15T03:43:22;0;0;
55591;PMS5003;41454;53.396;-1.510;2022-12-15T03:45:49;1;0;
55591;PMS5003;41454;53.396;-1.510;2022-12-15T03:48:16;1;1;
55591;PMS5003;41454;53.396;-1.510;2022-12-15T03:50:42;1;1;
55591;PMS5003;41454;53.396;-1.510;2022-12-15T03:53:09;1;0;
55591;PMS5003;41454;53.396;-1.510;2022-12-15T03:55:37;0;0;
55591;PMS5003;41454;53.396;-1.510;2022-12-15T03:58:04;0;0;
55591;PMS5003;41454;53.396;-1.510;2022-12-15T04:00:30;0;0;
55591;PMS5003;41454;53.396;-1.510;2022-12-15T04:02:58;2;1;
55591;PMS5003;41454;53.396;-1.510;2022-12-15T04:05:27;1;1;
55591;PMS5003;41454;53.396;-1.510;2022-12-15T04:07:56;2;1;
55591;PMS5003;41454;53.396;-1.510;2022-12-15T04:10:26;0;0;
55591;PMS5003;41454;53.396;-1.510;2022-12-15T04:12:56;0;0;
55591;PMS5003;41454;53.396;-1.510;2022-12-15T04:15:24;0;0;
55591;PMS5003;41454;53.396;-1.510;2022-12-15T04:17:52;0;0;
55591;PMS5003;41454;53.396;-1.510;2022-12-15T04:20:20;0;0;
55591;PMS5003;41454;53.396;-1.510;2022-12-15T04:22:48;1;1;
55591;PMS5003;41454;53.396;-1.510;2022-12-15T04:25:17;0;0;
55591;PMS5003;41454;53.396;-1.510;2022-12-15T04:27:47;0;0;
55591;PMS5003;41454;53.396;-1.510;2022-12-15T04:30:13;0;0;
55591;PMS5003;41454;53.396;-1.510;2022-12-15T04:32:41;1;0;
55591;PMS5003;41454;53.396;-1.510;2022-12-15T04:35:09;0;0;
55591;PMS5003;41454;53.396;-1.510;2022-12-15T04:37:36;0;0;
55591;PMS5003;41454;53.396;-1.510;2022-12-15T04:40:04;0;0;
55591;PMS5003;41454;53.396;-1.510;2022-12-15T04:42:34;0;0;
55591;PMS5003;41454;53.396;-1.510;2022-12-15T04:45:03;0;0;
55591;PMS5003;41454;53.396;-1.510;2022-12-15T04:47:33;0;0;
55591;PMS5003;41454;53.396;-1.510;2022-12-15T04:50:00;0;0;
55591;PMS5003;41454;53.396;-1.510;2022-12-15T04:52:27;1;1;
55591;PMS5003;41454;53.396;-1.510;2022-12-15T04:54:53;0;0;
55591;PMS5003;41454;53.396;-1.510;2022-12-15T04:57:20;1;1;
55591;PMS5003;41454;53.396;-1.510;2022-12-15T04:59:47;1;1;
55591;PMS5003;41454;53.396;-1.510;2022-12-15T05:02:14;1;0;
55591;PMS5003;41454;53.396;-1.510;2022-12-15T05:04:41;0;0;
55591;PMS5003;41454;53.396;-1.510;2022-12-15T05:07:08;0;0;
55591;PMS5003;41454;53.396;-1.510;2022-12-15T05:09:36;1;1;
55591;PMS5003;41454;53.396;-1.510;2022-12-15T05:12:05;0;0;
55591;PMS5003;41454;53.396;-1.510;2022-12-15T05:14:32;0;0;
55591;PMS5003;41454;53.396;-1.510;2022-12-15T05:17:00;0;0;
55591;PMS5003;41454;53.396;-1.510;2022-12-15T05:19:26;0;0;
55591;PMS5003;41454;53.396;-1.510;2022-12-15T05:21:53;0;0;
55591;PMS5003;41454;53.396;-1.510;2022-12-15T05:24:20;0;0;
55591;PMS5003;41454;53.396;-1.510;2022-12-15T05:26:47;0;0;
55591;PMS5003;41454;53.396;-1.510;2022-12-15T05:29:14;0;0;
55591;PMS5003;41454;53.396;-1.510;2022-12-15T05:31:40;0;0;
55591;PMS5003;41454;53.396;-1.510;2022-12-15T05:34:07;0;0;
55591;PMS5003;41454;53.396;-1.510;2022-12-15T05:36:34;0;0;
55591;PMS5003;41454;53.396;-1.510;2022-12-15T05:39:01;0;0;
55591;PMS5003;41454;53.396;-1.510;2022-12-15T05:41:28;1;0;
55591;PMS5003;41454;53.396;-1.510;2022-12-15T05:43:56;0;0;
55591;PMS5003;41454;53.396;-1.510;2022-12-15T05:46:23;0;0;
55591;PMS5003;41454;53.396;-1.510;2022-12-15T05:48:49;2;1;
55591;PMS5003;41454;53.396;-1.510;2022-12-15T05:51:16;0;0;
55591;PMS5003;41454;53.396;-1.510;2022-12-15T05:53:43;0;0;
55591;PMS5003;41454;53.396;-1.510;2022-12-15T05:56:11;1;0;
55591;PMS5003;41454;53.396;-1.510;2022-12-15T05:58:40;0;0;
55591;PMS5003;41454;53.396;-1.510;2022-12-15T06:01:09;0;0;
55591;PMS5003;41454;53.396;-1.510;2022-12-15T06:03:37;0;0;
55591;PMS5003;41454;53.396;-1.510;2022-12-15T06:06:05;1;0;
55591;PMS5003;41454;53.396;-1.510;2022-12-15T06:08:35;1;1;
55591;PMS5003;41454;53.396;-1.510;2022-12-15T06:11:04;1;1;
55591;PMS5003;41454;53.396;-1.510;2022-12-15T06:13:32;1;1;
55591;PMS5003;41454;53.396;-1.510;2022-12-15T06:16:00;0;0;
55591;PMS5003;41454;53.396;-1.510;2022-12-15T06:18:30;1;1;
55591;PMS5003;41454;53.396;-1.510;2022-12-15T06:21:00;0;0;
55591;PMS5003;41454;53.396;-1.510;2022-12-15T06:23:29;1;1;
55591;PMS5003;41454;53.396;-1.510;2022-12-15T06:25:58;0;0;
55591;PMS5003;41454;53.396;-1.510;2022-12-15T06:28:25;0;0;
55591;PMS5003;41454;53.396;-1.510;2022-12-15T06:30:53;0;0;
55591;PMS5003;41454;53.396;-1.510;2022-12-15T06:33:21;1;1;
55591;PMS5003;41454;53.396;-1.510;2022-12-15T06:35:49;0;0;
55591;PMS5003;41454;53.396;-1.510;2022-12-15T06:38:15;1;1;
55591;PMS5003;41454;53.396;-1.510;2022-12-15T06:40:42;0;0;
55591;PMS5003;41454;53.396;-1.510;2022-12-15T06:43:09;0;0;
55591;PMS5003;41454;53.396;-1.510;2022-12-15T06:45:37;0;0;
55591;PMS5003;41454;53.396;-1.510;2022-12-15T06:48:04;0;0;
55591;PMS5003;41454;53.396;-1.510;2022-12-15T06:50:32;0;0;
55591;PMS5003;41454;53.396;-1.510;2022-12-15T06:53:00;0;0;
55591;PMS5003;41454;53.396;-1.510;2022-12-15T06:55:27;0;0;
55591;PMS5003;41454;53.396;-1.510;2022-12-15T06:57:53;2;1;
55591;PMS5003;41454;53.396;-1.510;2022-12-15T07:00:20;2;1;
55591;PMS5003;41454;53.396;-1.510;2022-12-15T07:02:48;0;0;
55591;PMS5003;41454;53.396;-1.510;2022-12-15T07:05:15;1;1;
55591;PMS5003;41454;53.396;-1.510;2022-12-15T07:07:42;1;1;
55591;PMS5003;41454;53.396;-1.510;2022-12-15T07:10:09;0;0;
55591;PMS5003;41454;53.396;-1.510;2022-12-15T07:12:36;2;2;
55591;PMS5003;41454;53.396;-1.510;2022-12-15T07:15:04;0;0;
55591;PMS5003;41454;53.396;-1.510;2022-12-15T07:17:31;0;0;
55591;PMS5003;41454;53.396;-1.510;2022-12-15T07:19:58;0;0;
55591;PMS5003;41454;53.396;-1.510;2022-12-15T07:22:26;0;0;
55591;PMS5003;41454;53.396;-1.510;2022-12-15T07:24:54;2;2;
55591;PMS5003;41454;53.396;-1.510;2022-12-15T07:27:20;0;0;
55591;PMS5003;41454;53.396;-1.510;2022-12-15T07:29:48;3;1;
55591;PMS5003;41454;53.396;-1.510;2022-12-15T07:32:15;2;2;
55591;PMS5003;41454;53.396;-1.510;2022-12-15T07:34:43;0;0;
55591;PMS5003;41454;53.396;-1.510;2022-12-15T07:37:10;2;2;
55591;PMS5003;41454;53.396;-1.510;2022-12-15T07:39:37;1;1;
55591;PMS5003;41454;53.396;-1.510;2022-12-15T07:42:04;0;0;
55591;PMS5003;41454;53.396;-1.510;2022-12-15T07:44:31;1;1;
55591;PMS5003;41454;53.396;-1.510;2022-12-15T07:46:58;3;0;
55591;PMS5003;41454;53.396;-1.510;2022-12-15T07:49:25;0;0;
55591;PMS5003;41454;53.396;-1.510;2022-12-15T07:51:52;1;1;
55591;PMS5003;41454;53.396;-1.510;2022-12-15T07:54:18;0;0;
55591;PMS5003;41454;53.396;-1.510;2022-12-15T07:56:45;1;1;
55591;PMS5003;41454;53.396;-1.510;2022-12-15T07:59:12;0;0;
55591;PMS5003;41454;53.396;-1.510;2022-12-15T08:01:39;3;1;
55591;PMS5003;41454;53.396;-1.510;2022-12-15T08:04:06;1;1;
55591;PMS5003;41454;53.396;-1.510;2022-12-15T08:06:33;2;2;
55591;PMS5003;41454;53.396;-1.510;2022-12-15T08:09:00;1;1;
55591;PMS5003;41454;53.396;-1.510;2022-12-15T08:11:26;1;1;
55591;PMS5003;41454;53.396;-1.510;2022-12-15T08:13:54;2;2;
55591;PMS5003;41454;53.396;-1.510;2022-12-15T08:16:21;0;0;
55591;PMS5003;41454;53.396;-1.510;2022-12-15T08:18:48;2;2;
55591;PMS5003;41454;53.396;-1.510;2022-12-15T08:21:15;1;1;
55591;PMS5003;41454;53.396;-1.510;2022-12-15T08:23:43;2;2;
55591;PMS5003;41454;53.396;-1.510;2022-12-15T08:26:12;1;1;
55591;PMS5003;41454;53.396;-1.510;2022-12-15T08:28:41;1;1;
55591;PMS5003;41454;53.396;-1.510;2022-12-15T08:31:11;2;2;
55591;PMS5003;41454;53.396;-1.510;2022-12-15T08:33:40;1;1;
55591;PMS5003;41454;53.396;-1.510;2022-12-15T08:36:08;1;1;
55591;PMS5003;41454;53.396;-1.510;2022-12-15T08:38:37;0;0;
55591;PMS5003;41454;53.396;-1.510;2022-12-15T08:41:06;0;0;
55591;PMS5003;41454;53.396;-1.510;2022-12-15T08:43:33;2;1;
55591;PMS5003;41454;53.396;-1.510;2022-12-15T08:46:01;2;2;
55591;PMS5003;41454;53.396;-1.510;2022-12-15T08:48:28;2;2;
55591;PMS5003;41454;53.396;-1.510;2022-12-15T08:50:55;1;1;
55591;PMS5003;41454;53.396;-1.510;2022-12-15T08:53:23;1;1;
55591;PMS5003;41454;53.396;-1.510;2022-12-15T08:55:51;1;1;
55591;PMS5003;41454;53.396;-1.510;2022-12-15T08:58:18;0;0;
55591;PMS5003;41454;53.396;-1.510;2022-12-15T09:00:46;2;2;
55591;PMS5003;41454;53.396;-1.510;2022-12-15T09:03:13;1;1;
55591;PMS5003;41454;53.396;-1.510;2022-12-15T09:05:39;1;1;
55591;PMS5003;41454;53.396;-1.510;2022-12-15T09:08:06;1;1;
55591;PMS5003;41454;53.396;-1.510;2022-12-15T09:10:33;1;1;
55591;PMS5003;41454;53.396;-1.510;2022-12-15T09:13:00;1;1;
55591;PMS5003;41454;53.396;-1.510;2022-12-15T09:15:27;0;0;
55591;PMS5003;41454;53.396;-1.510;2022-12-15T09:17:54;3;1;
55591;PMS5003;41454;53.396;-1.510;2022-12-15T09:20:21;2;2;
55591;PMS5003;41454;53.396;-1.510;2022-12-15T09:22:49;2;1;
55591;PMS5003;41454;53.396;-1.510;2022-12-15T09:25:15;4;0;
55591;PMS5003;41454;53.396;-1.510;2022-12-15T09:27:43;1;1;
55591;PMS5003;41454;53.396;-1.510;2022-12-15T09:30:10;1;1;
55591;PMS5003;41454;53.396;-1.510;2022-12-15T09:32:37;2;2;
55591;PMS5003;41454;53.396;-1.510;2022-12-15T09:35:04;1;1;
55591;PMS5003;41454;53.396;-1.510;2022-12-15T09:37:32;3;2;
55591;PMS5003;41454;53.396;-1.510;2022-12-15T09:39:59;0;0;
55591;PMS5003;41454;53.396;-1.510;2022-12-15T09:42:27;1;1;
55591;PMS5003;41454;53.396;-1.510;2022-12-15T09:44:58;2;1;
55591;PMS5003;41454;53.396;-1.510;2022-12-15T09:47:33;1;1;
55591;PMS5003;41454;53.396;-1.510;2022-12-15T09:50:09;2;2;
55591;PMS5003;41454;53.396;-1.510;2022-12-15T09:52:43;1;1;
55591;PMS5003;41454;53.396;-1.510;2022-12-15T09:55:16;5;2;
55591;PMS5003;41454;53.396;-1.510;2022-12-15T09:57:46;1;1;
55591;PMS5003;41454;53.396;-1.510;2022-12-15T10:00:18;1;1;
55591;PMS5003;41454;53.396;-1.510;2022-12-15T10:03:52;1;1;
55591;PMS5003;41454;53.396;-1.510;2022-12-15T10:06:25;2;1;
55591;PMS5003;41454;53.396;-1.510;2022-12-15T10:08:57;1;1;
55591;PMS5003;41454;53.396;-1.510;2022-12-15T10:11:34;1;1;
55591;PMS5003;41454;53.396;-1.510;2022-12-15T10:14:10;1;1;
55591;PMS5003;41454;53.396;-1.510;2022-12-15T10:16:48;2;2;
55591;PMS5003;41454;53.396;-1.510;2022-12-15T10:19:23;1;1;
55591;PMS5003;41454;53.396;-1.510;2022-12-15T10:21:56;1;1;
55591;PMS5003;41454;53.396;-1.510;2022-12-15T10:24:24;1;1;
55591;PMS5003;41454;53.396;-1.510;2022-12-15T10:26:58;2;1;
55591;PMS5003;41454;53.396;-1.510;2022-12-15T10:29:34;2;1;
55591;PMS5003;41454;53.396;-1.510;2022-12-15T10:32:13;2;1;
55591;PMS5003;41454;53.396;-1.510;2022-12-15T10:34:43;1;1;
55591;PMS5003;41454;53.396;-1.510;2022-12-15T10:37:12;1;1;
55591;PMS5003;41454;53.396;-1.510;2022-12-15T10:39:43;1;1;
55591;PMS5003;41454;53.396;-1.510;2022-12-15T10:42:13;3;1;
55591;PMS5003;41454;53.396;-1.510;2022-12-15T10:44:43;1;1;
55591;PMS5003;41454;53.396;-1.510;2022-12-15T10:47:14;1;1;
55591;PMS5003;41454;53.396;-1.510;2022-12-15T10:49:45;1;1;
55591;PMS5003;41454;53.396;-1.510;2022-12-15T10:52:14;3;2;
55591;PMS5003;41454;53.396;-1.510;2022-12-15T10:54:46;3;2;
55591;PMS5003;41454;53.396;-1.510;2022-12-15T10:57:16;1;1;
55591;PMS5003;41454;53.396;-1.510;2022-12-15T10:59:47;2;2;
55591;PMS5003;41454;53.396;-1.510;2022-12-15T11:02:31;3;3;
55591;PMS5003;41454;53.396;-1.510;2022-12-15T11:04:59;2;1;
55591;PMS5003;41454;53.396;-1.510;2022-12-15T11:07:30;1;1;
55591;PMS5003;41454;53.396;-1.510;2022-12-15T11:10:02;2;2;
55591;PMS5003;41454;53.396;-1.510;2022-12-15T11:12:41;2;2;
55591;PMS5003;41454;53.396;-1.510;2022-12-15T11:15:33;1;1;
55591;PMS5003;41454;53.396;-1.510;2022-12-15T11:18:07;1;1;
55591;PMS5003;41454;53.396;-1.510;2022-12-15T11:20:46;2;2;
55591;PMS5003;41454;53.396;-1.510;2022-12-15T11:23:20;2;2;
55591;PMS5003;41454;53.396;-1.510;2022-12-15T11:25:58;1;1;
55591;PMS5003;41454;53.396;-1.510;2022-12-15T11:28:31;1;1;
55591;PMS5003;41454;53.396;-1.510;2022-12-15T11:31:06;1;1;
55591;PMS5003;41454;53.396;-1.510;2022-12-15T11:33:39;1;1;
55591;PMS5003;41454;53.396;-1.510;2022-12-15T11:36:08;1;1;
55591;PMS5003;41454;53.396;-1.510;2022-12-15T11:38:46;2;1;
55591;PMS5003;41454;53.396;-1.510;2022-12-15T11:41:25;3;1;
55591;PMS5003;41454;53.396;-1.510;2022-12-15T11:44:03;1;1;
55591;PMS5003;41454;53.396;-1.510;2022-12-15T11:46:44;3;3;
55591;PMS5003;41454;53.396;-1.510;2022-12-15T11:49:27;1;1;
55591;PMS5003;41454;53.396;-1.510;2022-12-15T11:53:10;2;1;
55591;PMS5003;41454;53.396;-1.510;2022-12-15T11:55:46;1;1;
55591;PMS5003;41454;53.396;-1.510;2022-12-15T11:58:26;1;1;
55591;PMS5003;41454;53.396;-1.510;2022-12-15T12:01:18;2;2;
55591;PMS5003;41454;53.396;-1.510;2022-12-15T12:04:04;3;2;
55591;PMS5003;41454;53.396;-1.510;2022-12-15T12:06:42;1;1;
55591;PMS5003;41454;53.396;-1.510;2022-12-15T12:09:35;1;1;
55591;PMS5003;41454;53.396;-1.510;2022-12-15T12:12:10;1;1;
55591;PMS5003;41454;53.396;-1.510;2022-12-15T12:14:46;4;2;
55591;PMS5003;41454;53.396;-1.510;2022-12-15T12:17:20;1;1;
55591;PMS5003;41454;53.396;-1.510;2022-12-15T12:19:57;2;2;
55591;PMS5003;41454;53.396;-1.510;2022-12-15T12:22:28;1;1;
55591;PMS5003;41454;53.396;-1.510;2022-12-15T12:25:02;2;2;
55591;PMS5003;41454;53.396;-1.510;2022-12-15T12:27:35;0;0;
55591;PMS5003;41454;53.396;-1.510;2022-12-15T12:30:10;4;1;
55591;PMS5003;41454;53.396;-1.510;2022-12-15T12:32:42;2;2;
55591;PMS5003;41454;53.396;-1.510;2022-12-15T12:35:18;2;2;
55591;PMS5003;41454;53.396;-1.510;2022-12-15T12:37:51;3;2;
55591;PMS5003;41454;53.396;-1.510;2022-12-15T12:40:24;6;6;
55591;PMS5003;41454;53.396;-1.510;2022-12-15T12:42:58;7;7;
55591;PMS5003;41454;53.396;-1.510;2022-12-15T12:45:26;4;4;
55591;PMS5003;41454;53.396;-1.510;2022-12-15T12:47:59;3;3;
55591;PMS5003;41454;53.396;-1.510;2022-12-15T12:50:35;4;3;
55591;PMS5003;41454;53.396;-1.510;2022-12-15T12:53:03;2;2;
55591;PMS5003;41454;53.396;-1.510;2022-12-15T12:55:35;2;2;
55591;PMS5003;41454;53.396;-1.510;2022-12-15T12:58:28;5;4;
55591;PMS5003;41454;53.396;-1.510;2022-12-15T13:01:13;3;3;
55591;PMS5003;41454;53.396;-1.510;2022-12-15T13:03:44;4;4;
55591;PMS5003;41454;53.396;-1.510;2022-12-15T13:06:55;2;2;
55591;PMS5003;41454;53.396;-1.510;2022-12-15T13:09:35;3;3;
55591;PMS5003;41454;53.396;-1.510;2022-12-15T13:12:04;4;4;
55591;PMS5003;41454;53.396;-1.510;2022-12-15T13:15:02;4;4;
55591;PMS5003;41454;53.396;-1.510;2022-12-15T13:17:38;5;5;
55591;PMS5003;41454;53.396;-1.510;2022-12-15T13:20:27;8;5;
55591;PMS5003;41454;53.396;-1.510;2022-12-15T13:24:02;5;5;
55591;PMS5003;41454;53.396;-1.510;2022-12-15T13:26:30;4;4;
55591;PMS5003;41454;53.396;-1.510;2022-12-15T13:28:57;3;3;
55591;PMS5003;41454;53.396;-1.510;2022-12-15T13:31:29;4;4;
55591;PMS5003;41454;53.396;-1.510;2022-12-15T13:34:01;3;3;
55591;PMS5003;41454;53.396;-1.510;2022-12-15T13:36:56;4;4;
55591;PMS5003;41454;53.396;-1.510;2022-12-15T13:39:31;2;2;
55591;PMS5003;41454;53.396;-1.510;2022-12-15T13:42:23;3;3;
55591;PMS5003;41454;53.396;-1.510;2022-12-15T13:44:56;4;4;
55591;PMS5003;41454;53.396;-1.510;2022-12-15T13:47:49;3;3;
55591;PMS5003;41454;53.396;-1.510;2022-12-15T13:50:23;3;3;
55591;PMS5003;41454;53.396;-1.510;2022-12-15T13:52:57;4;4;
55591;PMS5003;41454;53.396;-1.510;2022-12-15T13:55:30;5;4;
55591;PMS5003;41454;53.396;-1.510;2022-12-15T13:58:02;4;4;
55591;PMS5003;41454;53.396;-1.510;2022-12-15T14:00:38;4;4;
55591;PMS5003;41454;53.396;-1.510;2022-12-15T14:03:14;5;4;
55591;PMS5003;41454;53.396;-1.510;2022-12-15T14:05:46;5;5;
55591;PMS5003;41454;53.396;-1.510;2022-12-15T14:08:14;5;5;
55591;PMS5003;41454;53.396;-1.510;2022-12-15T14:10:43;7;7;
55591;PMS5003;41454;53.396;-1.510;2022-12-15T14:13:17;7;6;
55591;PMS5003;41454;53.396;-1.510;2022-12-15T14:15:49;11;9;
55591;PMS5003;41454;53.396;-1.510;2022-12-15T14:18:21;6;6;
55591;PMS5003;41454;53.396;-1.510;2022-12-15T14:20:51;7;6;
55591;PMS5003;41454;53.396;-1.510;2022-12-15T14:23:18;8;8;
55591;PMS5003;41454;53.396;-1.510;2022-12-15T14:25:54;11;9;
55591;PMS5003;41454;53.396;-1.510;2022-12-15T14:28:23;8;8;
55591;PMS5003;41454;53.396;-1.510;2022-12-15T14:30:52;7;6;
55591;PMS5003;41454;53.396;-1.510;2022-12-15T14:33:24;6;6;
55591;PMS5003;41454;53.396;-1.510;2022-12-15T14:35:53;12;9;
55591;PMS5003;41454;53.396;-1.510;2022-12-15T14:38:24;7;6;
55591;PMS5003;41454;53.396;-1.510;2022-12-15T14:40:56;5;5;
55591;PMS5003;41454;53.396;-1.510;2022-12-15T14:43:28;7;5;
55591;PMS5003;41454;53.396;-1.510;2022-12-15T14:46:04;7;7;
55591;PMS5003;41454;53.396;-1.510;2022-12-15T14:48:35;6;5;
55591;PMS5003;41454;53.396;-1.510;2022-12-15T14:51:04;8;8;
55591;PMS5003;41454;53.396;-1.510;2022-12-15T14:53:35;8;8;
55591;PMS5003;41454;53.396;-1.510;2022-12-15T14:56:18;7;7;
55591;PMS5003;41454;53.396;-1.510;2022-12-15T14:58:54;6;6;
55591;PMS5003;41454;53.396;-1.510;2022-12-15T15:01:25;11;10;
55591;PMS5003;41454;53.396;-1.510;2022-12-15T15:03:55;12;11;
55591;PMS5003;41454;53.396;-1.510;2022-12-15T15:06:23;12;10;
55591;PMS5003;41454;53.396;-1.510;2022-12-15T15:08:55;8;8;
55591;PMS5003;41454;53.396;-1.510;2022-12-15T15:11:28;9;8;
55591;PMS5003;41454;53.396;-1.510;2022-12-15T15:14:02;8;7;
55591;PMS5003;41454;53.396;-1.510;2022-12-15T15:16:33;9;9;
55591;PMS5003;41454;53.396;-1.510;2022-12-15T15:19:01;10;9;
55591;PMS5003;41454;53.396;-1.510;2022-12-15T15:21:34;7;7;
55591;PMS5003;41454;53.396;-1.510;2022-12-15T15:24:03;6;6;
55591;PMS5003;41454;53.396;-1.510;2022-12-15T15:26:47;7;7;
55591;PMS5003;41454;53.396;-1.510;2022-12-15T15:29:28;7;7;
55591;PMS5003;41454;53.396;-1.510;2022-12-15T15:32:03;6;6;
55591;PMS5003;41454;53.396;-1.510;2022-12-15T15:34:32;9;8;
55591;PMS5003;41454;53.396;-1.510;2022-12-15T15:37:00;13;8;
55591;PMS5003;41454;53.396;-1.510;2022-12-15T15:39:27;7;7;
55591;PMS5003;41454;53.396;-1.510;2022-12-15T15:41:54;9;6;
55591;PMS5003;41454;53.396;-1.510;2022-12-15T15:44:21;12;9;
55591;PMS5003;41454;53.396;-1.510;2022-12-15T15:46:48;9;9;
55591;PMS5003;41454;53.396;-1.510;2022-12-15T15:49:18;9;8;
55591;PMS5003;41454;53.396;-1.510;2022-12-15T15:51:47;9;8;
55591;PMS5003;41454;53.396;-1.510;2022-12-15T15:54:15;11;11;
55591;PMS5003;41454;53.396;-1.510;2022-12-15T15:56:45;12;12;
55591;PMS5003;41454;53.396;-1.510;2022-12-15T15:59:13;13;12;
55591;PMS5003;41454;53.396;-1.510;2022-12-15T16:01:42;15;12;
55591;PMS5003;41454;53.396;-1.510;2022-12-15T16:04:09;12;11;
55591;PMS5003;41454;53.396;-1.510;2022-12-15T16:06:36;14;10;
55591;PMS5003;41454;53.396;-1.510;2022-12-15T16:09:03;16;14;
55591;PMS5003;41454;53.396;-1.510;2022-12-15T16:11:31;12;12;
55591;PMS5003;41454;53.396;-1.510;2022-12-15T16:13:59;15;13;
55591;PMS5003;41454;53.396;-1.510;2022-12-15T16:16:28;12;12;
55591;PMS5003;41454;53.396;-1.510;2022-12-15T16:18:58;13;12;
55591;PMS5003;41454;53.396;-1.510;2022-12-15T16:21:26;15;14;
55591;PMS5003;41454;53.396;-1.510;2022-12-15T16:23:53;16;16;
55591;PMS5003;41454;53.396;-1.510;2022-12-15T16:26:23;21;20;
55591;PMS5003;41454;53.396;-1.510;2022-12-15T16:28:53;15;15;
55591;PMS5003;41454;53.396;-1.510;2022-12-15T16:31:26;24;23;
55591;PMS5003;41454;53.396;-1.510;2022-12-15T16:33:56;34;30;
55591;PMS5003;41454;53.396;-1.510;2022-12-15T16:36:23;22;21;
55591;PMS5003;41454;53.396;-1.510;2022-12-15T16:38:50;15;14;
55591;PMS5003;41454;53.396;-1.510;2022-12-15T16:41:17;18;16;
55591;PMS5003;41454;53.396;-1.510;2022-12-15T16:43:44;23;21;
55591;PMS5003;41454;53.396;-1.510;2022-12-15T16:46:12;17;16;
55591;PMS5003;41454;53.396;-1.510;2022-12-15T16:48:40;16;16;
55591;PMS5003;41454;53.396;-1.510;2022-12-15T16:51:11;16;16;
55591;PMS5003;41454;53.396;-1.510;2022-12-15T16:53:49;20;20;
55591;PMS5003;41454;53.396;-1.510;2022-12-15T16:56:16;20;18;
55591;PMS5003;41454;53.396;-1.510;2022-12-15T16:58:43;15;13;
55591;PMS5003;41454;53.396;-1.510;2022-12-15T17:01:10;20;19;
55591;PMS5003;41454;53.396;-1.510;2022-12-15T17:03:36;17;17;